createdAt,value
2022-08-12T00:00:00.297Z,100546.91
2022-08-12T00:02:45.869Z,100552.34
2022-08-12T00:05:32.501Z,100545.63
2022-08-12T00:08:28.627Z,100550.41
2022-08-12T00:11:21.204Z,100551.94
2022-08-12T00:14:06.274Z,100548.00
2022-08-12T00:16:53.129Z,100549.13
2022-08-12T00:19:38.258Z,100551.78
2022-08-12T00:22:23.916Z,100552.72
2022-08-12T00:25:09.426Z,100564.31
2022-08-12T00:27:55.109Z,100561.34
2022-08-12T00:30:40.720Z,100564.41
2022-08-12T00:33:30.487Z,100574.28
2022-08-12T00:36:35.223Z,100567.13
2022-08-12T00:39:22.105Z,100567.13
2022-08-12T00:42:08.947Z,100563.56
2022-08-12T00:44:37.083Z,100567.50
2022-08-12T00:47:06.608Z,100565.88
2022-08-12T00:49:39.403Z,100552.09
2022-08-12T00:52:09.742Z,100554.97
2022-08-12T00:54:42.367Z,100553.47
2022-08-12T00:57:13.285Z,100554.88
2022-08-12T00:59:46.782Z,100560.66
2022-08-12T01:02:23.529Z,100565.94
2022-08-12T01:05:14.010Z,100564.44
2022-08-12T01:08:00.549Z,100567.88
2022-08-12T01:10:52.171Z,100564.31
2022-08-12T01:13:20.733Z,100567.41
2022-08-12T01:15:52.343Z,100571.13
2022-08-12T01:18:21.670Z,100562.34
2022-08-12T01:21:12.130Z,100567.28
2022-08-12T01:24:30.346Z,100568.13
2022-08-12T01:26:55.974Z,100569.44
2022-08-12T01:29:28.588Z,100575.88
2022-08-12T01:32:05.199Z,100572.81
2022-08-12T01:34:37.350Z,100573.28
2022-08-12T01:37:08.358Z,100570.38
2022-08-12T01:40:33.339Z,100571.25
2022-08-12T01:42:41.038Z,100575.13
2022-08-12T01:45:12.329Z,100571.03
2022-08-12T01:47:55.070Z,100570.88
2022-08-12T01:50:26.429Z,100578.81
2022-08-12T01:53:03.740Z,100582.72
2022-08-12T01:55:34.513Z,100571.91
2022-08-12T01:58:15.918Z,100579.16
2022-08-12T02:00:55.343Z,100577.84
2022-08-12T02:03:54.842Z,100575.03
2022-08-12T02:06:48.349Z,100572.69
2022-08-12T02:09:37.981Z,100576.78
2022-08-12T02:12:15.271Z,100573.97
2022-08-12T02:14:53.170Z,100570.94
2022-08-12T02:17:55.093Z,100573.00
2022-08-12T02:20:43.864Z,100569.34
2022-08-12T02:23:25.456Z,100568.56
2022-08-12T02:25:57.050Z,100564.75
2022-08-12T02:28:25.448Z,100563.59
2022-08-12T02:30:56.219Z,100556.66
2022-08-12T02:33:25.597Z,100565.97
2022-08-12T02:35:53.842Z,100567.53
2022-08-12T02:38:22.862Z,100561.47
2022-08-12T02:40:54.638Z,100565.88
2022-08-12T02:43:32.082Z,100562.19
2022-08-12T02:46:09.301Z,100556.81
2022-08-12T02:48:47.612Z,100557.34
2022-08-12T02:51:20.413Z,100556.03
2022-08-12T02:54:03.316Z,100555.19
2022-08-12T02:56:34.814Z,100559.06
2022-08-12T02:59:03.167Z,100558.88
2022-08-12T03:01:35.670Z,100564.78
2022-08-12T03:04:20.395Z,100561.91
2022-08-12T03:06:52.853Z,100568.63
2022-08-12T03:09:24.833Z,100566.59
2022-08-12T03:12:04.811Z,100570.31
2022-08-12T03:14:36.221Z,100566.94
2022-08-12T03:17:14.927Z,100575.72
2022-08-12T03:20:08.808Z,100574.72
2022-08-12T03:22:38.310Z,100570.69
2022-08-12T03:25:07.635Z,100566.16
2022-08-12T03:27:40.420Z,100569.88
2022-08-12T03:30:09.314Z,100568.84
2022-08-12T03:32:40.599Z,100576.31
2022-08-12T03:35:38.356Z,100568.72
2022-08-12T03:38:05.317Z,100581.03
2022-08-12T03:41:01.229Z,100582.88
2022-08-12T03:43:52.486Z,100585.28
2022-08-12T03:46:44.767Z,100581.91
2022-08-12T03:49:31.724Z,100586.13
2022-08-12T03:52:17.495Z,100594.88
2022-08-12T03:55:02.624Z,100585.94
2022-08-12T03:57:48.699Z,100594.22
2022-08-12T04:00:24.817Z,100596.13
2022-08-12T04:03:01.801Z,100596.63
2022-08-12T04:05:54.296Z,100600.22
2022-08-12T04:08:23.909Z,100606.63
2022-08-12T04:11:09.603Z,100607.47
2022-08-12T04:13:40.778Z,100608.66
2022-08-12T04:16:14.459Z,100604.09
2022-08-12T04:18:43.472Z,100606.13
2022-08-12T04:21:13.029Z,100610.03
2022-08-12T04:23:48.173Z,100609.19
2022-08-12T04:26:16.522Z,100612.38
2022-08-12T04:28:45.920Z,100616.78
2022-08-12T04:31:14.209Z,100612.59
2022-08-12T04:33:43.496Z,100610.72
2022-08-12T04:36:12.745Z,100614.41
2022-08-12T04:38:40.940Z,100618.31
2022-08-12T04:41:11.078Z,100610.75
2022-08-12T04:44:00.627Z,100608.72
2022-08-12T04:46:31.960Z,100607.69
2022-08-12T04:49:03.723Z,100599.09
2022-08-12T04:51:33.799Z,100605.31
2022-08-12T04:54:02.705Z,100605.16
2022-08-12T04:56:35.435Z,100598.06
2022-08-12T04:59:04.044Z,100603.28
2022-08-12T05:01:32.790Z,100601.25
2022-08-12T05:04:02.814Z,100596.69
2022-08-12T05:06:32.754Z,100606.13
2022-08-12T05:09:01.392Z,100602.06
2022-08-12T05:11:29.753Z,100601.91
2022-08-12T05:14:00.222Z,100599.53
2022-08-12T05:16:32.501Z,100607.78
2022-08-12T05:19:02.418Z,100608.78
2022-08-12T05:21:30.422Z,100609.91
2022-08-12T05:23:59.610Z,100610.09
2022-08-12T05:26:27.976Z,100614.78
2022-08-12T05:28:55.935Z,100619.31
2022-08-12T05:31:47.625Z,100620.44
2022-08-12T05:34:14.667Z,100625.50
2022-08-12T05:36:43.783Z,100626.28
2022-08-12T05:39:13.274Z,100632.50
2022-08-12T05:41:41.607Z,100624.50
2022-08-12T05:44:12.677Z,100630.88
2022-08-12T05:46:41.227Z,100636.91
2022-08-12T05:49:09.152Z,100642.78
2022-08-12T05:51:41.201Z,100640.19
2022-08-12T05:54:10.452Z,100640.84
2022-08-12T05:56:40.720Z,100647.75
2022-08-12T05:59:11.278Z,100651.59
2022-08-12T06:02:10.005Z,100648.00
2022-08-12T06:04:28.256Z,100650.47
2022-08-12T06:06:56.135Z,100647.88
2022-08-12T06:09:26.393Z,100647.63
2022-08-12T06:12:04.633Z,100641.50
2022-08-12T06:14:36.981Z,100644.13
2022-08-12T06:17:07.922Z,100644.69
2022-08-12T06:20:26.771Z,100652.38
2022-08-12T06:22:23.691Z,100648.34
2022-08-12T06:24:52.990Z,100645.19
2022-08-12T06:27:22.442Z,100644.91
2022-08-12T06:30:09.765Z,100643.16
2022-08-12T06:32:51.587Z,100640.59
2022-08-12T06:35:48.209Z,100645.56
2022-08-12T06:38:17.242Z,100646.28
2022-08-12T06:41:03.084Z,100635.13
2022-08-12T06:44:06.982Z,100645.06
2022-08-12T06:46:22.082Z,100642.69
2022-08-12T06:48:55.091Z,100641.41
2022-08-12T06:51:23.052Z,100643.38
2022-08-12T06:53:51.005Z,100643.06
2022-08-12T06:56:18.800Z,100642.72
2022-08-12T06:58:47.960Z,100636.78
2022-08-12T07:01:17.440Z,100641.66
2022-08-12T07:03:45.935Z,100642.16
2022-08-12T07:06:13.932Z,100638.09
2022-08-12T07:08:44.002Z,100633.78
2022-08-12T07:11:13.468Z,100631.53
2022-08-12T07:14:08.531Z,100640.16
2022-08-12T07:16:48.753Z,100630.59
2022-08-12T07:19:16.941Z,100627.47
2022-08-12T07:21:57.929Z,100622.09
2022-08-12T07:24:30.247Z,100624.63
2022-08-12T07:26:58.258Z,100625.50
2022-08-12T07:29:57.876Z,100626.19
2022-08-12T07:32:18.363Z,100630.81
2022-08-12T07:34:47.364Z,100640.66
2022-08-12T07:37:17.730Z,100643.00
2022-08-12T07:39:50.799Z,100637.75
2022-08-12T07:42:28.059Z,100641.97
2022-08-12T07:44:56.509Z,100641.56
2022-08-12T07:47:27.520Z,100648.69
2022-08-12T07:50:05.289Z,100640.78
2022-08-12T07:52:34.678Z,100635.53
2022-08-12T07:55:02.817Z,100639.28
2022-08-12T07:57:32.417Z,100638.00
2022-08-12T08:00:04.915Z,100637.56
2022-08-12T08:02:35.794Z,100640.22
2022-08-12T08:05:03.774Z,100629.47
2022-08-12T08:07:31.643Z,100631.72
2022-08-12T08:10:01.198Z,100628.34
2022-08-12T08:12:47.950Z,100625.28
2022-08-12T08:15:16.560Z,100634.59
2022-08-12T08:17:59.640Z,100627.06
2022-08-12T08:20:29.482Z,100633.69
2022-08-12T08:22:58.413Z,100638.13
2022-08-12T08:25:36.791Z,100631.41
2022-08-12T08:28:08.285Z,100643.00
2022-08-12T08:30:39.388Z,100633.59
2022-08-12T08:33:22.913Z,100630.38
2022-08-12T08:35:54.281Z,100627.00
2022-08-12T08:38:32.245Z,100628.28
2022-08-12T08:42:16.571Z,100620.72
2022-08-12T08:44:10.865Z,100622.19
2022-08-12T08:46:39.357Z,100618.53
2022-08-12T08:49:08.880Z,100614.75
2022-08-12T08:51:37.308Z,100618.25
2022-08-12T08:54:06.850Z,100607.00
2022-08-12T08:56:42.726Z,100607.97
2022-08-12T08:59:11.875Z,100602.13
2022-08-12T09:01:39.874Z,100607.44
2022-08-12T09:05:11.192Z,100602.84
2022-08-12T09:07:00.121Z,100598.78
2022-08-12T09:10:01.408Z,100599.47
2022-08-12T09:12:36.199Z,100588.91
2022-08-12T09:15:16.632Z,100594.34
2022-08-12T09:17:53.244Z,100586.97
2022-08-12T09:20:27.488Z,100589.66
2022-08-12T09:22:58.946Z,100589.25
2022-08-12T09:25:27.425Z,100575.16
2022-08-12T09:28:05.131Z,100589.88
2022-08-12T09:30:41.006Z,100583.47
2022-08-12T09:33:18.823Z,100588.53
2022-08-12T09:36:04.537Z,100591.13
2022-08-12T09:38:35.357Z,100583.13
2022-08-12T09:42:33.419Z,100581.69
2022-08-12T09:44:37.702Z,100573.28
2022-08-12T09:46:58.254Z,100576.19
2022-08-12T09:49:26.050Z,100563.31
2022-08-12T09:51:55.814Z,100564.53
2022-08-12T09:54:32.887Z,100564.09
2022-08-12T09:58:46.934Z,100556.84
2022-08-12T10:00:13.406Z,100565.72
2022-08-12T10:03:01.656Z,100557.97
2022-08-12T10:06:19.687Z,100551.50
2022-08-12T10:08:30.331Z,100547.56
2022-08-12T10:11:18.544Z,100542.72
2022-08-12T10:13:50.057Z,100534.81
2022-08-12T10:16:22.585Z,100538.34
2022-08-12T10:18:53.664Z,100529.69
2022-08-12T10:21:24.313Z,100522.06
2022-08-12T10:24:06.871Z,100515.03
2022-08-12T10:26:53.961Z,100508.59
2022-08-12T10:30:11.933Z,100518.06
2022-08-12T10:32:44.474Z,100512.25
2022-08-12T10:35:15.926Z,100510.06
2022-08-12T10:38:37.926Z,100500.41
2022-08-12T10:40:55.854Z,100506.09
2022-08-12T10:43:55.423Z,100493.38
2022-08-12T10:46:31.264Z,100491.75
2022-08-12T10:49:06.587Z,100489.41
2022-08-12T10:52:32.892Z,100481.75
2022-08-12T10:54:41.324Z,100476.84
2022-08-12T10:57:18.265Z,100484.53
2022-08-12T11:00:34.255Z,100491.94
2022-08-12T11:04:22.847Z,100486.47
2022-08-12T11:07:08.461Z,100477.13
2022-08-12T11:08:37.929Z,100478.56
2022-08-12T11:11:13.664Z,100474.91
2022-08-12T11:13:46.478Z,100483.00
2022-08-12T11:16:19.523Z,100476.09
2022-08-12T11:18:54.975Z,100480.03
2022-08-12T11:21:51.452Z,100472.34
2022-08-12T11:24:30.019Z,100476.50
2022-08-12T11:27:00.137Z,100472.38
2022-08-12T11:30:06.057Z,100474.56
2022-08-12T11:32:18.062Z,100466.00
2022-08-12T11:34:52.777Z,100465.19
2022-08-12T11:37:25.534Z,100464.06
2022-08-12T11:42:35.013Z,100459.09
2022-08-12T11:45:05.647Z,100458.53
2022-08-12T11:47:40.500Z,100459.91
2022-08-12T11:50:11.872Z,100451.66
2022-08-12T11:52:56.583Z,100449.16
2022-08-12T11:55:27.470Z,100445.84
2022-08-12T11:58:34.001Z,100432.31
2022-08-12T12:03:44.058Z,100425.66
2022-08-12T12:06:16.919Z,100430.06
2022-08-12T12:08:51.055Z,100422.06
2022-08-12T12:11:21.492Z,100427.31
2022-08-12T12:14:06.772Z,100428.16
2022-08-12T12:16:39.986Z,100433.97
2022-08-12T12:19:10.603Z,100430.63
2022-08-12T12:21:47.521Z,100423.19
2022-08-12T12:24:21.642Z,100416.53
2022-08-12T12:27:00.602Z,100413.75
2022-08-12T12:30:17.770Z,100414.34
2022-08-12T12:32:29.379Z,100400.72
2022-08-12T12:35:14.131Z,100399.31
2022-08-12T12:38:04.024Z,100397.91
2022-08-12T12:40:35.053Z,100391.84
2022-08-12T12:43:08.702Z,100395.94
2022-08-12T12:45:39.300Z,100387.16
2022-08-12T12:48:10.713Z,100392.16
2022-08-12T12:50:42.498Z,100388.22
2022-08-12T12:54:06.519Z,100388.81
2022-08-12T12:56:13.529Z,100379.13
2022-08-12T12:58:43.484Z,100376.28
2022-08-12T13:01:28.024Z,100378.97
2022-08-12T13:04:02.507Z,100379.09
2022-08-12T13:06:32.410Z,100373.91
2022-08-12T13:09:03.893Z,100372.53
2022-08-12T13:11:42.261Z,100359.84
2022-08-12T13:14:29.551Z,100369.81
2022-08-12T13:17:02.384Z,100363.16
2022-08-12T13:19:37.664Z,100376.47
2022-08-12T13:22:21.077Z,100370.41
2022-08-12T13:24:54.686Z,100374.53
2022-08-12T13:27:34.474Z,100370.63
2022-08-12T13:30:06.965Z,100364.19
2022-08-12T13:32:40.718Z,100364.41
2022-08-12T13:35:19.231Z,100354.94
2022-08-12T13:37:55.383Z,100356.94
2022-08-12T13:40:24.989Z,100357.84
2022-08-12T13:42:57.726Z,100369.00
2022-08-12T13:45:25.961Z,100364.88
2022-08-12T13:47:56.363Z,100369.28
2022-08-12T13:50:29.826Z,100367.56
2022-08-12T13:52:57.735Z,100358.44
2022-08-12T13:55:30.920Z,100359.25
2022-08-12T13:58:00.131Z,100357.88
2022-08-12T14:00:33.918Z,100361.25
2022-08-12T14:03:06.657Z,100359.81
2022-08-12T14:05:40.105Z,100358.66
2022-08-12T14:08:10.913Z,100355.63
2022-08-12T14:10:50.512Z,100346.78
2022-08-12T14:14:05.730Z,100345.38
2022-08-12T14:16:15.015Z,100340.94
2022-08-12T14:19:03.020Z,100344.28
2022-08-12T14:21:59.440Z,100337.84
2022-08-12T14:24:21.491Z,100329.22
2022-08-12T14:26:55.088Z,100325.31
2022-08-12T14:29:55.644Z,100329.78
2022-08-12T14:32:16.513Z,100330.84
2022-08-12T14:34:44.811Z,100324.31
2022-08-12T14:37:54.907Z,100322.59
2022-08-12T14:40:02.628Z,100325.44
2022-08-12T14:42:30.615Z,100322.19
2022-08-12T14:45:01.028Z,100316.97
2022-08-12T14:47:35.557Z,100327.31
2022-08-12T14:50:37.783Z,100319.63
2022-08-12T14:58:32.597Z,100322.41
2022-08-12T15:01:19.762Z,100321.28
2022-08-12T15:03:57.130Z,100318.22
2022-08-12T15:06:43.902Z,100317.94
2022-08-12T15:09:15.998Z,100307.97
2022-08-12T15:11:55.288Z,100316.53
2022-08-12T15:14:25.602Z,100314.09
2022-08-12T15:16:54.159Z,100319.06
2022-08-12T15:20:12.032Z,100314.41
2022-08-12T15:22:37.726Z,100317.16
2022-08-12T15:24:59.622Z,100318.19
2022-08-12T15:27:31.597Z,100310.44
2022-08-12T15:30:08.023Z,100308.97
2022-08-12T15:32:37.546Z,100305.38
2022-08-12T15:35:12.188Z,100316.63
2022-08-12T15:38:09.251Z,100305.28
2022-08-12T15:40:30.720Z,100306.63
2022-08-12T15:42:59.678Z,100313.97
2022-08-12T15:45:32.194Z,100316.34
2022-08-12T15:48:16.278Z,100306.84
2022-08-12T15:50:45.679Z,100300.81
2022-08-12T15:53:16.110Z,100301.38
2022-08-12T15:55:46.769Z,100295.06
2022-08-12T15:58:16.917Z,100293.75
2022-08-12T16:00:45.421Z,100289.31
2022-08-12T16:03:19.080Z,100300.38
2022-08-12T16:06:11.359Z,100296.47
2022-08-12T16:08:41.595Z,100300.03
2022-08-12T16:11:15.190Z,100299.47
2022-08-12T16:13:44.628Z,100289.81
2022-08-12T16:16:24.080Z,100284.81
2022-08-12T16:18:58.641Z,100287.56
2022-08-12T16:21:52.747Z,100285.09
2022-08-12T16:24:18.650Z,100280.44
2022-08-12T16:26:51.148Z,100286.19
2022-08-12T16:29:23.700Z,100279.00
2022-08-12T16:31:51.586Z,100281.75
2022-08-12T16:34:25.803Z,100277.97
2022-08-12T16:37:13.389Z,100280.69
2022-08-12T16:40:00.252Z,100277.38
2022-08-12T16:42:32.228Z,100276.75
2022-08-12T16:45:02.520Z,100270.38
2022-08-12T16:47:57.771Z,100273.38
2022-08-12T16:50:31.239Z,100273.38
2022-08-12T16:53:02.465Z,100275.28
2022-08-12T16:55:42.030Z,100267.81
2022-08-12T16:58:28.000Z,100276.19
2022-08-12T17:01:02.341Z,100274.22
2022-08-12T17:03:36.566Z,100276.91
2022-08-12T17:06:06.478Z,100282.13
2022-08-12T17:08:34.792Z,100279.56
2022-08-12T17:11:08.533Z,100269.03
2022-08-12T17:13:37.895Z,100270.28
2022-08-12T17:16:21.183Z,100266.31
2022-08-12T17:18:57.483Z,100268.09
2022-08-12T17:21:40.176Z,100269.94
2022-08-12T17:24:21.430Z,100266.81
2022-08-12T17:26:53.845Z,100263.50
2022-08-12T17:30:01.578Z,100274.34
2022-08-12T17:32:14.294Z,100275.09
2022-08-12T17:35:00.328Z,100271.72
2022-08-12T17:37:28.900Z,100280.06
2022-08-12T17:40:12.428Z,100275.41
2022-08-12T17:42:47.389Z,100282.13
2022-08-12T17:45:19.746Z,100286.38
2022-08-12T17:48:04.761Z,100284.13
2022-08-12T17:50:36.314Z,100280.72
2022-08-12T17:53:05.456Z,100283.97
2022-08-12T17:55:43.885Z,100278.41
2022-08-12T17:58:14.146Z,100279.41
2022-08-12T18:00:45.547Z,100285.06
2022-08-12T18:04:04.476Z,100287.72
2022-08-12T18:06:14.150Z,100290.13
2022-08-12T18:08:54.181Z,100293.81
2022-08-12T18:12:03.698Z,100292.31
2022-08-12T18:14:37.254Z,100291.44
2022-08-12T18:17:08.829Z,100293.22
2022-08-12T18:20:06.636Z,100306.50
2022-08-12T18:22:30.922Z,100312.38
2022-08-12T18:25:03.657Z,100305.72
2022-08-12T18:27:45.743Z,100308.38
2022-08-12T18:30:29.219Z,100313.16
2022-08-12T18:33:04.531Z,100316.03
2022-08-12T18:35:47.557Z,100315.31
2022-08-12T18:38:22.499Z,100316.28
2022-08-12T18:41:10.410Z,100318.91
2022-08-12T18:43:58.527Z,100315.25
2022-08-12T18:46:33.221Z,100310.75
2022-08-12T18:49:17.730Z,100311.72
2022-08-12T18:51:54.808Z,100321.72
2022-08-12T18:54:25.680Z,100317.44
2022-08-12T18:56:55.210Z,100316.50
2022-08-12T19:00:01.617Z,100317.88
2022-08-12T19:02:20.871Z,100311.50
2022-08-12T19:04:53.375Z,100316.00
2022-08-12T19:07:24.022Z,100319.69
2022-08-12T19:09:57.637Z,100323.38
2022-08-12T19:12:57.107Z,100320.38
2022-08-12T19:15:29.745Z,100324.06
2022-08-12T19:18:02.371Z,100328.09
2022-08-12T19:20:32.969Z,100328.69
2022-08-12T19:23:07.951Z,100330.22
2022-08-12T19:26:00.136Z,100327.38
2022-08-12T19:28:35.604Z,100328.50
2022-08-12T19:31:57.999Z,100334.31
2022-08-12T19:37:27.177Z,100328.66
2022-08-12T19:40:31.930Z,100333.16
2022-08-12T19:43:01.054Z,100332.44
2022-08-12T19:45:43.182Z,100328.13
2022-08-12T19:48:18.830Z,100335.94
2022-08-12T19:50:50.602Z,100337.69
2022-08-12T19:53:23.894Z,100332.88
2022-08-12T19:55:55.930Z,100341.31
2022-08-12T19:58:25.564Z,100342.00
2022-08-12T20:00:55.862Z,100344.56
2022-08-12T20:03:38.173Z,100350.50
2022-08-12T20:06:15.962Z,100347.63
2022-08-12T20:08:56.696Z,100351.66
2022-08-12T20:12:14.108Z,100345.41
2022-08-12T20:14:17.872Z,100335.63
2022-08-12T20:16:50.802Z,100341.19
2022-08-12T20:19:23.637Z,100348.16
2022-08-12T20:21:52.007Z,100351.41
2022-08-12T20:24:24.378Z,100340.13
2022-08-12T20:27:02.805Z,100346.09
2022-08-12T20:29:42.859Z,100350.84
2022-08-12T20:32:15.041Z,100345.00
2022-08-12T20:34:49.033Z,100347.78
2022-08-12T20:37:22.378Z,100351.00
2022-08-12T20:40:15.237Z,100354.84
2022-08-12T20:42:43.567Z,100354.50
2022-08-12T20:45:11.627Z,100356.22
2022-08-12T20:47:42.089Z,100363.38
2022-08-12T20:50:15.814Z,100364.22
2022-08-12T20:52:47.129Z,100358.63
2022-08-12T20:55:19.350Z,100363.44
2022-08-12T20:58:02.590Z,100362.44
2022-08-12T21:00:33.054Z,100361.63
2022-08-12T21:03:21.047Z,100364.59
2022-08-12T21:06:12.405Z,100375.53
2022-08-12T21:08:41.617Z,100369.31
2022-08-12T21:11:11.640Z,100368.72
2022-08-12T21:13:41.862Z,100370.81
2022-08-12T21:16:10.454Z,100368.31
2022-08-12T21:18:38.669Z,100368.13
2022-08-12T21:21:23.744Z,100361.03
2022-08-12T21:23:56.464Z,100367.78
2022-08-12T21:26:28.718Z,100371.34
2022-08-12T21:29:01.224Z,100373.03
2022-08-12T21:32:37.547Z,100369.25
2022-08-12T21:34:29.084Z,100370.50
2022-08-12T21:37:03.864Z,100374.03
2022-08-12T21:39:52.205Z,100375.75
2022-08-12T21:42:22.523Z,100375.53
2022-08-12T21:45:47.732Z,100368.41
2022-08-12T21:47:43.965Z,100380.94
2022-08-12T21:50:14.783Z,100378.22
2022-08-12T21:52:42.664Z,100385.97
2022-08-12T21:55:18.682Z,100387.00
2022-08-12T21:57:54.437Z,100390.28
2022-08-12T22:00:35.017Z,100390.06
2022-08-12T22:04:01.814Z,100400.06
2022-08-12T22:06:26.511Z,100397.47
2022-08-12T22:09:02.077Z,100403.50
2022-08-12T22:11:42.483Z,100405.16
2022-08-12T22:14:17.945Z,100407.19
2022-08-12T22:16:53.162Z,100407.16
2022-08-12T22:19:21.487Z,100407.13
2022-08-12T22:21:53.745Z,100408.56
2022-08-12T22:24:26.297Z,100404.97
2022-08-12T22:26:58.060Z,100403.69
2022-08-12T22:29:45.273Z,100416.53
2022-08-12T22:32:15.748Z,100416.69
2022-08-12T22:34:44.552Z,100414.97
2022-08-12T22:37:19.797Z,100404.09
2022-08-12T22:39:49.370Z,100404.66
2022-08-12T22:42:35.078Z,100407.97
2022-08-12T22:45:23.608Z,100409.59
2022-08-12T22:47:55.108Z,100413.72
2022-08-12T22:50:27.413Z,100411.78
2022-08-12T22:53:14.691Z,100408.44
2022-08-12T22:56:05.629Z,100409.88
2022-08-12T22:58:33.497Z,100409.22
2022-08-12T23:01:03.651Z,100402.25
2022-08-12T23:03:49.192Z,100405.94
2022-08-12T23:06:20.125Z,100403.13
2022-08-12T23:08:48.814Z,100412.03
2022-08-12T23:11:17.938Z,100401.78
2022-08-12T23:13:55.077Z,100404.59
2022-08-12T23:16:31.139Z,100406.59
2022-08-12T23:19:10.250Z,100406.91
2022-08-12T23:22:06.421Z,100405.78
2022-08-12T23:24:38.466Z,100408.06
2022-08-12T23:27:23.826Z,100410.13
2022-08-12T23:30:18.584Z,100405.47
2022-08-12T23:32:54.179Z,100401.44
2022-08-12T23:35:22.888Z,100408.84
2022-08-12T23:37:53.829Z,100408.34
2022-08-12T23:40:24.269Z,100406.88
2022-08-12T23:42:54.930Z,100411.81
2022-08-12T23:45:31.602Z,100408.81
2022-08-12T23:48:03.510Z,100411.25
2022-08-12T23:50:34.086Z,100412.81
2022-08-12T23:53:05.815Z,100414.88
2022-08-12T23:55:38.237Z,100410.69
2022-08-12T23:58:21.614Z,100409.38
